createdAt,value
2017-06-22T19:10:36.172Z,9.00
2017-06-22T19:13:03.777Z,11.73
2017-06-22T19:15:31.294Z,8.27
2017-06-22T19:17:58.864Z,13.40
2017-06-22T19:20:26.506Z,7.07
2017-06-22T19:22:54.024Z,8.67
2017-06-22T19:25:22.389Z,6.50
2017-06-22T19:27:49.956Z,5.23
2017-06-22T19:30:17.469Z,8.50
2017-06-22T19:32:45.011Z,8.63
2017-06-22T19:35:12.545Z,9.10
2017-06-22T19:37:40.850Z,4.60
2017-06-22T19:40:09.191Z,5.23
2017-06-22T19:42:37.514Z,4.10
2017-06-22T19:45:05.049Z,5.23
2017-06-22T19:47:33.430Z,5.97
2017-06-22T19:50:00.979Z,5.00
2017-06-22T19:52:28.926Z,12.60
2017-06-22T19:54:56.851Z,4.17
2017-06-22T19:57:24.401Z,3.77
2017-06-22T19:59:51.903Z,3.90
2017-06-22T20:02:19.417Z,7.73
2017-06-22T20:04:46.959Z,6.20
2017-06-22T20:07:15.215Z,3.83
2017-06-22T20:09:42.758Z,3.97
2017-06-22T20:12:10.289Z,5.53
2017-06-22T20:14:37.806Z,4.80
2017-06-22T20:17:05.351Z,4.63
2017-06-22T20:19:32.924Z,8.03
2017-06-22T20:22:00.445Z,4.00
2017-06-22T20:24:27.997Z,5.50
2017-06-22T20:26:55.529Z,3.90
2017-06-22T20:29:23.126Z,6.10
2017-06-22T20:31:50.614Z,3.20
2017-06-22T20:34:18.159Z,2.90
2017-06-22T20:36:45.719Z,2.43
2017-06-22T20:39:13.271Z,3.30
2017-06-22T20:41:40.821Z,2.70
2017-06-22T20:44:08.333Z,6.57
2017-06-22T20:46:36.586Z,7.90
2017-06-22T20:49:04.120Z,4.90
2017-06-22T20:51:31.656Z,7.90
2017-06-22T20:53:59.180Z,6.00
2017-06-22T20:56:27.593Z,4.20
2017-06-22T20:58:55.104Z,4.67
2017-06-22T21:01:22.639Z,8.10
2017-06-22T21:06:46.925Z,14.03
2017-06-22T21:09:14.463Z,6.97
2017-06-22T21:11:42.731Z,6.70
2017-06-22T21:14:11.015Z,10.23
2017-06-22T21:16:39.308Z,6.13
2017-06-22T21:19:06.841Z,3.83
2017-06-22T21:21:35.105Z,8.70
2017-06-22T21:24:02.627Z,7.50
2017-06-22T21:26:30.140Z,6.37
2017-06-22T21:28:57.761Z,21.43
2017-06-22T21:31:25.272Z,8.33
2017-06-22T21:33:52.787Z,7.20
2017-06-22T21:36:21.231Z,12.50
2017-06-22T21:38:50.150Z,9.27
2017-06-22T21:41:17.662Z,5.63
2017-06-22T21:43:48.957Z,5.40
2017-06-22T21:46:16.466Z,12.13
2017-06-22T21:48:44.001Z,7.83
2017-06-22T21:51:11.569Z,4.77
2017-06-22T21:53:39.210Z,17.33
2017-06-22T21:56:06.954Z,35.80
2017-06-22T21:58:34.458Z,17.90
2017-06-22T22:01:02.892Z,52.87
2017-06-22T22:03:30.429Z,13.70
2017-06-22T22:05:58.003Z,14.57
2017-06-22T22:08:25.589Z,17.00
2017-06-22T22:10:53.121Z,21.80
2017-06-22T22:13:20.642Z,16.50
2017-06-22T22:15:48.932Z,17.47
2017-06-22T22:18:16.608Z,18.73
2017-06-22T22:20:44.132Z,19.97
2017-06-22T22:23:11.823Z,24.83
2017-06-22T22:25:39.335Z,22.33
2017-06-22T22:28:06.872Z,20.63
2017-06-22T22:30:34.417Z,20.73
2017-06-22T22:33:01.915Z,22.43
2017-06-22T22:35:29.425Z,19.63
2017-06-22T22:37:56.944Z,13.40
2017-06-22T22:40:24.558Z,21.63
2017-06-22T22:42:52.046Z,12.73
2017-06-22T22:45:19.954Z,12.37
2017-06-22T22:47:47.440Z,18.60
2017-06-22T22:50:14.943Z,23.90
2017-06-22T22:52:42.547Z,26.13
2017-06-22T22:55:10.040Z,18.17
2017-06-22T22:57:37.551Z,16.27
2017-06-22T23:00:05.090Z,19.27
2017-06-22T23:02:32.580Z,22.50
2017-06-22T23:05:00.144Z,25.50
2017-06-22T23:07:27.819Z,14.80
2017-06-22T23:09:55.310Z,16.80
2017-06-22T23:12:22.802Z,20.33
2017-06-22T23:14:51.099Z,16.63
2017-06-22T23:17:18.623Z,19.27
2017-06-22T23:19:46.122Z,22.63
2017-06-22T23:22:13.885Z,21.37
2017-06-22T23:24:42.099Z,20.67
2017-06-22T23:27:09.612Z,20.23
2017-06-22T23:29:37.133Z,18.30
2017-06-22T23:32:04.631Z,17.40
2017-06-22T23:34:32.137Z,17.47
2017-06-22T23:36:59.710Z,30.97
2017-06-22T23:39:27.226Z,21.50
2017-06-22T23:41:54.793Z,19.70
2017-06-22T23:44:22.318Z,19.10
2017-06-22T23:46:50.601Z,22.27
2017-06-22T23:49:18.110Z,21.07
2017-06-22T23:51:45.847Z,20.77
2017-06-22T23:54:13.344Z,15.63
2017-06-22T23:56:40.835Z,17.20
2017-06-22T23:59:09.135Z,21.90
